Time;durP1;ratioP1;P1;durP2;ratioP2;P2;SDS_P1;SDS_P2;PMS_P1;PMS_P2;Temp;Humidity;BMP_temperature;BMP_pressure;BME280_temperature;BME280_humidity;BME280_pressure;Samples;Min_cycle;Max_cycle;Signal;HPM_P1;HPM_P2
2022/10/22 00:02:20;;;;;;;9.20;2.70;;;13.50;99.90;;;;;;5112249;28;20040;-55
2022/10/22 00:04:47;;;;;;;6.00;2.30;;;13.50;99.90;;;;;;5094413;28;20048;-55
2022/10/22 00:07:16;;;;;;;7.85;2.40;;;13.50;99.90;;;;;;5104519;28;20044;-55
2022/10/22 00:09:44;;;;;;;8.65;3.25;;;13.60;99.90;;;;;;5108865;28;20093;-51
2022/10/22 00:12:10;;;;;;;;;;;13.50;99.90;;;;;;5110695;28;20092;-51
2022/10/22 00:14:37;;;;;;;11.18;2.67;;;13.40;99.90;;;;;;5092621;28;20006;-51
2022/10/22 00:17:04;;;;;;;8.20;2.50;;;13.40;99.90;;;;;;5092845;28;20036;-50
2022/10/22 00:19:36;;;;;;;9.55;2.65;;;13.30;99.90;;;;;;5097426;28;20043;-51
2022/10/22 00:22:04;;;;;;;10.98;3.75;;;13.20;99.90;;;;;;5097583;28;20071;-50
2022/10/22 00:24:33;;;;;;;9.95;2.97;;;13.30;99.90;;;;;;5111640;28;20100;-51
2022/10/22 00:27:00;;;;;;;7.15;2.50;;;13.30;99.90;;;;;;5109325;28;20074;-54
2022/10/22 00:29:27;;;;;;;9.50;4.03;;;13.20;99.90;;;;;;5093096;28;20094;-51
2022/10/22 00:31:54;;;;;;;12.57;3.63;;;13.10;99.90;;;;;;5100228;28;20526;-52
2022/10/22 00:34:26;;;;;;;15.43;3.88;;;13.20;99.90;;;;;;5112458;28;20043;-53
2022/10/22 00:36:54;;;;;;;6.40;3.20;;;13.20;99.90;;;;;;5110108;28;21534;-50
2022/10/22 00:39:23;;;;;;;7.70;3.33;;;13.30;99.90;;;;;;5112703;28;20384;-53
2022/10/22 00:41:53;;;;;;;11.48;4.07;;;13.30;99.90;;;;;;5110609;28;20042;-51
2022/10/22 00:44:57;;;;;;;7.80;3.97;;;13.30;99.90;;;;;;5093648;28;20082;-51
2022/10/22 00:47:26;;;;;;;11.32;3.95;;;13.30;99.90;;;;;;5106909;28;20097;-52
2022/10/22 00:49:53;;;;;;;7.75;3.03;;;13.30;99.90;;;;;;5102137;28;20491;-50
2022/10/22 00:52:21;;;;;;;8.18;3.50;;;13.20;99.90;;;;;;5108340;28;20396;-53
2022/10/22 00:54:48;;;;;;;8.50;3.05;;;13.20;99.90;;;;;;5109699;28;20449;-50
2022/10/22 00:57:17;;;;;;;13.35;3.25;;;13.10;99.90;;;;;;5099702;28;20066;-50
2022/10/22 00:59:44;;;;;;;8.25;3.50;;;13.10;99.90;;;;;;5093039;28;20062;-52
2022/10/22 01:02:11;;;;;;;20.92;4.63;;;12.90;99.90;;;;;;5100408;28;20101;-51
2022/10/22 01:04:37;;;;;;;8.90;3.55;;;12.90;99.90;;;;;;5106703;28;20046;-52
2022/10/22 01:07:05;;;;;;;12.70;4.78;;;12.90;99.90;;;;;;5111592;28;20115;-53
2022/10/22 01:09:51;;;;;;;;;;;12.90;99.90;;;;;;5103951;28;20071;-53
2022/10/22 01:12:41;;;;;;;7.05;3.53;;;12.90;99.90;;;;;;5095500;28;19958;-53
2022/10/22 01:15:30;;;;;;;9.60;4.32;;;12.90;99.90;;;;;;5110509;28;20058;-54
2022/10/22 01:18:07;;;;;;;7.47;4.53;;;12.90;99.90;;;;;;5100200;28;20067;-53
2022/10/22 01:20:49;;;;;;;10.45;4.10;;;12.90;99.90;;;;;;5100090;28;20377;-52
2022/10/22 01:23:38;;;;;;;9.23;3.70;;;12.80;99.90;;;;;;5109021;28;20043;-53
2022/10/22 01:26:43;;;;;;;8.93;3.95;;;12.70;99.90;;;;;;5107896;28;20100;-51
2022/10/22 01:29:12;;;;;;;15.20;4.40;;;12.70;99.90;;;;;;5102648;28;20555;-53
2022/10/22 01:31:53;;;;;;;11.20;4.50;;;12.60;99.90;;;;;;5106185;28;20488;-54
2022/10/22 01:34:22;;;;;;;17.92;5.63;;;12.60;99.90;;;;;;5104994;28;20177;-53
2022/10/22 01:36:51;;;;;;;14.13;5.40;;;12.60;99.90;;;;;;5103284;28;20070;-53
2022/10/22 01:39:19;;;;;;;10.98;4.70;;;12.60;99.90;;;;;;5108812;28;20036;-55
2022/10/22 01:41:46;;;;;;;10.48;5.25;;;12.60;99.90;;;;;;5102377;28;20067;-52
2022/10/22 01:44:32;;;;;;;12.50;5.25;;;12.70;99.90;;;;;;5096754;28;20119;-51
2022/10/22 01:47:16;;;;;;;8.63;3.80;;;12.70;99.90;;;;;;5095983;28;20061;-52
2022/10/22 01:50:00;;;;;;;11.52;4.80;;;12.70;99.90;;;;;;5101799;28;20067;-51
2022/10/22 01:52:36;;;;;;;8.63;4.28;;;12.70;99.90;;;;;;5096820;28;20048;-52
2022/10/22 01:55:27;;;;;;;9.73;5.00;;;12.70;99.90;;;;;;5103096;28;20050;-51
2022/10/22 01:58:18;;;;;;;13.90;5.97;;;12.70;99.90;;;;;;5105988;28;20063;-53
2022/10/22 02:00:56;;;;;;;9.73;4.70;;;12.60;99.90;;;;;;5098374;28;20071;-53
2022/10/22 02:04:14;;;;;;;10.93;5.03;;;12.70;99.90;;;;;;5096432;22;20139;-48
2022/10/22 02:06:46;;;;;;;9.65;5.03;;;12.70;99.90;;;;;;5060550;28;20109;-51
2022/10/22 02:09:15;;;;;;;14.18;4.75;;;12.70;99.90;;;;;;5082670;28;20040;-49
2022/10/22 02:11:44;;;;;;;10.40;4.00;;;12.70;99.90;;;;;;5074514;28;20037;-50
2022/10/22 02:14:12;;;;;;;12.35;4.90;;;12.70;99.90;;;;;;5062543;28;20456;-48
2022/10/22 02:16:46;;;;;;;10.98;4.45;;;12.70;99.90;;;;;;5078294;28;20400;-48
2022/10/22 02:19:29;;;;;;;10.32;4.65;;;12.70;99.90;;;;;;5087047;28;20036;-48
2022/10/22 02:21:56;;;;;;;11.30;4.95;;;12.70;99.90;;;;;;5080980;28;20090;-49
2022/10/22 02:24:24;;;;;;;9.18;4.35;;;12.70;99.90;;;;;;5080795;28;20127;-49
2022/10/22 02:27:22;;;;;;;8.30;4.13;;;12.70;99.90;;;;;;5090201;28;20036;-51
2022/10/22 02:30:08;;;;;;;11.63;3.95;;;12.70;99.90;;;;;;5066062;28;20407;-48
2022/10/22 02:33:05;;;;;;;7.93;4.05;;;12.70;99.90;;;;;;5089087;28;20038;-48
2022/10/22 02:35:33;;;;;;;10.75;5.53;;;12.70;99.90;;;;;;5084189;28;20500;-48
2022/10/22 02:38:01;;;;;;;8.73;4.35;;;12.70;99.90;;;;;;5084553;28;20531;-49
2022/10/22 02:40:30;;;;;;;15.63;4.80;;;12.80;99.90;;;;;;5083613;28;20066;-50
2022/10/22 02:42:56;;;;;;;10.48;4.10;;;12.80;99.90;;;;;;5087593;28;20043;-49
2022/10/22 02:45:23;;;;;;;13.20;4.60;;;12.80;99.90;;;;;;5089490;28;20074;-48
2022/10/22 02:47:51;;;;;;;7.25;4.18;;;12.90;99.90;;;;;;5075364;28;20503;-48
2022/10/22 02:50:17;;;;;;;10.48;3.63;;;12.90;99.90;;;;;;5089868;28;20048;-48
2022/10/22 02:52:44;;;;;;;10.13;4.13;;;12.90;99.90;;;;;;5081382;28;20082;-48
2022/10/22 02:55:11;;;;;;;10.35;3.75;;;13.00;99.90;;;;;;5076803;28;20401;-49
2022/10/22 02:57:38;;;;;;;9.57;3.85;;;13.00;99.90;;;;;;5079060;28;20078;-47
2022/10/22 03:00:07;;;;;;;9.90;4.05;;;13.00;99.90;;;;;;5089669;28;20048;-49
2022/10/22 03:02:34;;;;;;;8.20;3.38;;;13.00;99.90;;;;;;5067703;28;20054;-48
2022/10/22 03:05:01;;;;;;;8.88;3.88;;;13.00;99.90;;;;;;5089620;28;20165;-47
2022/10/22 03:07:27;;;;;;;9.00;4.00;;;13.00;99.90;;;;;;5088168;28;20090;-47
2022/10/22 03:09:54;;;;;;;13.48;4.10;;;13.10;99.90;;;;;;5087387;28;20074;-48
2022/10/22 03:12:21;;;;;;;9.73;4.20;;;13.10;99.90;;;;;;5082530;28;20044;-47
2022/10/22 03:14:48;;;;;;;10.63;3.95;;;13.10;99.90;;;;;;5090345;28;20125;-47
2022/10/22 03:17:14;;;;;;;15.60;3.92;;;13.00;99.90;;;;;;5087104;28;20044;-50
2022/10/22 03:19:41;;;;;;;10.77;3.92;;;13.10;99.90;;;;;;5086304;28;20063;-48
2022/10/22 03:22:18;;;;;;;9.23;3.20;;;13.10;99.90;;;;;;5085810;28;20079;-48
2022/10/22 03:24:49;;;;;;;9.25;4.30;;;13.00;99.90;;;;;;5089427;28;20084;-50
2022/10/22 03:27:18;;;;;;;10.23;4.15;;;12.90;99.90;;;;;;5079580;28;20044;-48
2022/10/22 03:29:46;;;;;;;6.60;3.58;;;12.80;99.90;;;;;;5097469;28;20032;-51
2022/10/22 03:32:13;;;;;;;13.57;3.95;;;12.90;99.90;;;;;;5107585;28;20404;-49
2022/10/22 03:34:39;;;;;;;10.20;3.95;;;12.90;99.90;;;;;;5103252;28;20072;-51
2022/10/22 03:37:06;;;;;;;30.15;11.15;;;12.90;99.90;;;;;;5073650;28;20136;-49
2022/10/22 03:39:35;;;;;;;19.65;10.23;;;12.80;99.90;;;;;;5084303;28;20074;-48
2022/10/22 03:42:03;;;;;;;19.33;5.57;;;12.90;99.90;;;;;;5094082;28;20452;-48
2022/10/22 03:44:30;;;;;;;11.55;5.40;;;12.90;99.90;;;;;;5090198;28;20036;-48
2022/10/22 03:46:57;;;;;;;13.02;5.30;;;12.90;99.90;;;;;;5085582;28;20055;-49
2022/10/22 03:49:28;;;;;;;7.68;3.28;;;12.90;99.90;;;;;;5093109;28;20068;-49
2022/10/22 03:51:54;;;;;;;12.80;3.72;;;12.90;99.90;;;;;;5093690;28;20063;-50
2022/10/22 03:54:21;;;;;;;12.52;4.43;;;12.90;99.90;;;;;;5084013;28;20076;-47
2022/10/22 03:56:48;;;;;;;9.02;4.50;;;13.00;99.90;;;;;;5113918;28;20097;-51
2022/10/22 03:59:15;;;;;;;9.20;3.88;;;12.90;99.90;;;;;;5084041;28;20679;-50
2022/10/22 04:01:41;;;;;;;7.10;3.90;;;13.00;99.90;;;;;;5113366;28;20031;-49
2022/10/22 04:04:08;;;;;;;7.65;4.60;;;13.00;99.90;;;;;;5092273;28;20044;-48
2022/10/22 04:06:35;;;;;;;8.60;3.58;;;12.90;99.90;;;;;;5072757;28;20736;-47
2022/10/22 04:09:02;;;;;;;12.60;4.43;;;12.90;99.90;;;;;;5080810;28;20070;-49
2022/10/22 04:11:29;;;;;;;7.45;3.85;;;13.00;99.90;;;;;;5088673;28;20031;-48
2022/10/22 04:13:55;;;;;;;8.80;4.25;;;13.00;99.90;;;;;;5103689;28;20604;-48
2022/10/22 04:16:22;;;;;;;7.47;3.80;;;12.90;99.90;;;;;;5113404;28;20420;-49
2022/10/22 04:18:54;;;;;;;9.27;3.60;;;12.90;99.90;;;;;;5084131;28;20043;-50
2022/10/22 04:21:21;;;;;;;6.10;3.95;;;13.00;99.90;;;;;;5091213;28;20079;-48
2022/10/22 04:23:49;;;;;;;7.63;2.85;;;13.00;99.90;;;;;;5092141;28;20607;-47
2022/10/22 04:26:17;;;;;;;5.80;3.30;;;12.90;99.90;;;;;;5083903;28;20072;-48
2022/10/22 04:28:45;;;;;;;11.68;3.72;;;13.00;99.90;;;;;;5086038;28;20076;-50
2022/10/22 04:31:14;;;;;;;14.43;3.90;;;13.00;99.90;;;;;;5111646;28;20074;-50
2022/10/22 04:33:42;;;;;;;9.23;4.03;;;13.00;99.90;;;;;;5080028;28;20131;-48
2022/10/22 04:36:17;;;;;;;7.90;4.22;;;13.00;99.90;;;;;;5072394;28;20072;-49
2022/10/22 04:38:46;;;;;;;8.82;4.03;;;13.00;99.90;;;;;;5084098;28;20101;-49
2022/10/22 04:41:15;;;;;;;6.50;3.50;;;13.00;99.90;;;;;;5092581;28;20078;-49
2022/10/22 04:43:43;;;;;;;6.95;2.97;;;13.00;99.90;;;;;;5091698;28;20101;-48
2022/10/22 04:46:11;;;;;;;9.05;3.45;;;13.00;99.90;;;;;;5081416;28;20632;-48
2022/10/22 04:48:40;;;;;;;10.38;4.60;;;13.00;99.90;;;;;;5092555;28;20493;-48
2022/10/22 04:51:10;;;;;;;11.95;4.00;;;13.00;99.90;;;;;;5091775;28;20090;-48
2022/10/22 04:53:39;;;;;;;9.70;3.63;;;13.00;99.90;;;;;;5088712;28;20459;-48
2022/10/22 04:56:15;;;;;;;8.38;3.47;;;13.10;99.90;;;;;;5107224;28;20696;-48
2022/10/22 04:58:43;;;;;;;10.05;2.72;;;13.10;99.90;;;;;;5054887;28;20107;-49
2022/10/22 05:01:12;;;;;;;6.53;2.88;;;13.10;99.90;;;;;;5071739;28;20119;-50
2022/10/22 05:03:40;;;;;;;4.60;2.38;;;13.00;99.90;;;;;;5112107;28;20480;-51
2022/10/22 05:06:07;;;;;;;;;;;13.10;99.90;;;;;;5100869;28;20512;-49
2022/10/22 05:08:34;;;;;;;7.93;3.28;;;13.00;99.90;;;;;;5072011;28;19924;-49
2022/10/22 05:11:16;;;;;;;7.90;3.42;;;13.00;99.90;;;;;;5078564;28;20040;-48
2022/10/22 05:13:43;;;;;;;4.43;2.20;;;13.00;99.90;;;;;;5084975;28;20092;-48
2022/10/22 05:16:10;;;;;;;5.13;2.03;;;13.00;99.90;;;;;;5091635;28;20404;-48
2022/10/22 05:18:38;;;;;;;8.55;2.50;;;13.00;99.90;;;;;;5087475;28;20120;-50
2022/10/22 05:21:10;;;;;;;6.97;2.70;;;13.00;99.90;;;;;;5074626;28;20037;-50
2022/10/22 05:23:37;;;;;;;6.07;2.60;;;13.00;99.90;;;;;;5095216;28;20627;-49
2022/10/22 05:26:06;;;;;;;4.18;1.70;;;13.00;99.90;;;;;;5093173;28;20072;-48
2022/10/22 05:28:33;;;;;;;3.53;1.75;;;13.00;99.90;;;;;;5091635;28;20040;-48
2022/10/22 05:31:01;;;;;;;2.55;1.60;;;13.10;99.90;;;;;;5084984;28;20075;-49
2022/10/22 05:33:30;;;;;;;4.35;2.10;;;13.10;99.90;;;;;;5082578;28;20396;-48
2022/10/22 05:35:57;;;;;;;3.83;1.70;;;13.20;99.90;;;;;;5089877;28;20043;-47
2022/10/22 05:38:24;;;;;;;6.25;2.42;;;13.20;99.90;;;;;;5098531;28;20072;-48
2022/10/22 05:41:07;;;;;;;9.85;5.03;;;13.30;99.90;;;;;;5081139;28;20060;-50
2022/10/22 05:43:35;;;;;;;10.50;5.30;;;13.20;99.90;;;;;;5070250;28;20044;-50
2022/10/22 05:46:06;;;;;;;7.18;3.88;;;13.20;99.90;;;;;;5053213;28;20041;-48
2022/10/22 05:48:33;;;;;;;6.20;3.88;;;13.10;99.90;;;;;;5079230;28;20075;-48
2022/10/22 05:51:11;;;;;;;11.82;5.72;;;13.10;99.90;;;;;;5070963;28;20645;-48
2022/10/22 05:53:40;;;;;;;5.32;3.28;;;13.10;99.90;;;;;;5073037;28;20085;-48
2022/10/22 05:56:11;;;;;;;3.70;2.33;;;13.10;99.90;;;;;;5097921;28;20071;-49
2022/10/22 05:58:38;;;;;;;4.88;2.90;;;13.20;99.90;;;;;;5088326;28;20802;-48
2022/10/22 06:01:10;;;;;;;10.32;5.22;;;13.20;99.90;;;;;;5084410;28;20082;-49
2022/10/22 06:03:36;;;;;;;12.05;7.03;;;13.20;99.90;;;;;;5068472;28;20158;-48
2022/10/22 06:06:25;;;;;;;11.68;6.75;;;13.20;99.90;;;;;;5094937;28;20607;-50
2022/10/22 06:08:53;;;;;;;9.63;5.38;;;13.10;99.90;;;;;;5092039;28;20048;-49
2022/10/22 06:11:22;;;;;;;8.65;4.55;;;13.10;99.90;;;;;;5108131;28;20050;-49
2022/10/22 06:13:49;;;;;;;11.95;5.35;;;13.10;99.90;;;;;;5091291;28;20044;-48
2022/10/22 06:16:16;;;;;;;4.13;3.20;;;13.00;99.90;;;;;;5069898;28;20044;-49
2022/10/22 06:18:43;;;;;;;5.60;3.78;;;13.10;99.90;;;;;;5087576;28;20123;-49
2022/10/22 06:21:12;;;;;;;8.43;4.38;;;13.10;99.90;;;;;;5093067;28;20075;-48
2022/10/22 06:23:39;;;;;;;12.98;5.10;;;13.10;99.90;;;;;;5089795;28;20067;-49
2022/10/22 06:26:08;;;;;;;8.88;3.83;;;13.10;99.90;;;;;;5105723;28;20066;-49
2022/10/22 06:28:35;;;;;;;6.90;3.47;;;13.10;99.90;;;;;;5085923;28;20048;-49
2022/10/22 06:31:02;;;;;;;;;;;13.10;99.90;;;;;;5071047;28;20044;-49
2022/10/22 06:33:31;;;;;;;6.00;3.78;;;13.10;99.90;;;;;;5075323;28;19923;-53
2022/10/22 06:36:13;;;;;;;9.65;4.70;;;13.10;99.90;;;;;;5086438;28;20144;-49
2022/10/22 06:38:40;;;;;;;9.70;5.78;;;13.10;99.90;;;;;;5090731;28;20059;-49
2022/10/22 06:41:10;;;;;;;11.57;6.32;;;13.20;99.90;;;;;;5090657;28;20101;-49
2022/10/22 06:43:36;;;;;;;10.85;6.55;;;13.20;99.90;;;;;;5089947;28;20381;-48
2022/10/22 06:46:07;;;;;;;9.75;5.35;;;13.10;99.90;;;;;;5082657;28;20101;-49
2022/10/22 06:48:36;;;;;;;10.65;4.60;;;13.10;99.90;;;;;;5064759;28;20573;-48
2022/10/22 06:51:08;;;;;;;10.70;5.38;;;13.10;99.90;;;;;;5099691;28;20054;-48
2022/10/22 06:53:36;;;;;;;13.25;8.02;;;13.10;99.90;;;;;;5088094;28;20071;-49
2022/10/22 06:56:12;;;;;;;12.02;6.85;;;13.20;99.90;;;;;;5112442;28;20031;-50
2022/10/22 06:58:39;;;;;;;17.70;11.45;;;13.20;99.90;;;;;;5073295;28;20101;-50
2022/10/22 07:01:08;;;;;;;13.18;8.68;;;13.20;99.90;;;;;;5072897;28;20132;-49
2022/10/22 07:03:35;;;;;;;12.32;7.22;;;13.20;99.90;;;;;;5077857;28;20039;-48
2022/10/22 07:06:03;;;;;;;;;;;13.10;99.90;;;;;;5085238;28;20457;-48
2022/10/22 07:08:30;;;;;;;9.77;4.80;;;13.20;99.90;;;;;;5114883;28;19920;-48
2022/10/22 07:11:09;;;;;;;8.50;4.82;;;13.20;99.90;;;;;;5104082;28;20055;-48
2022/10/22 07:13:36;;;;;;;7.78;4.60;;;13.20;99.90;;;;;;5078043;28;20089;-49
2022/10/22 07:16:05;;;;;;;8.82;4.78;;;13.20;99.90;;;;;;5084805;28;20119;-48
2022/10/22 07:18:32;;;;;;;11.38;4.57;;;13.30;99.90;;;;;;5100652;28;20078;-48
2022/10/22 07:21:00;;;;;;;7.70;4.47;;;13.30;99.90;;;;;;5096819;28;20068;-48
2022/10/22 07:23:27;;;;;;;;;;;13.30;99.90;;;;;;5113330;28;20083;-50
2022/10/22 07:25:54;;;;;;;10.43;4.85;;;13.30;99.90;;;;;;5094517;28;19974;-51
2022/10/22 07:28:26;;;;;;;7.78;4.93;;;13.30;99.90;;;;;;5074135;28;20094;-50
2022/10/22 07:30:53;;;;;;;7.30;4.45;;;13.30;99.90;;;;;;5080842;28;20036;-50
2022/10/22 07:33:20;;;;;;;9.05;5.63;;;13.30;99.90;;;;;;5088294;28;20493;-49
2022/10/22 07:35:47;;;;;;;8.55;5.60;;;13.30;99.90;;;;;;5101785;28;20039;-49
2022/10/22 07:38:13;;;;;;;9.18;5.13;;;13.30;99.90;;;;;;5102070;28;20523;-49
2022/10/22 07:40:40;;;;;;;10.15;4.65;;;13.30;99.90;;;;;;5088957;28;20106;-51
2022/10/22 07:43:07;;;;;;;8.75;5.32;;;13.30;99.90;;;;;;5073613;28;20497;-48
2022/10/22 07:45:33;;;;;;;11.27;6.07;;;13.30;99.90;;;;;;5075498;28;20097;-50
2022/10/22 07:48:01;;;;;;;11.55;5.72;;;13.30;99.90;;;;;;5085430;28;20120;-49
2022/10/22 07:50:27;;;;;;;15.43;6.00;;;13.30;99.90;;;;;;5093248;28;20039;-49
2022/10/22 07:52:54;;;;;;;12.30;5.32;;;13.30;99.90;;;;;;5087986;28;20120;-50
2022/10/22 07:55:24;;;;;;;15.00;6.88;;;13.30;99.90;;;;;;5103109;28;20039;-48
2022/10/22 07:57:51;;;;;;;12.05;7.07;;;13.20;99.90;;;;;;5113582;28;20131;-50
2022/10/22 08:00:18;;;;;;;13.35;7.75;;;13.20;99.90;;;;;;5081439;28;20044;-53
2022/10/22 08:03:35;;;;;;;14.27;7.45;;;13.20;99.90;;;;;;5111377;22;20070;-53
2022/10/22 08:06:02;;;;;;;12.35;6.30;;;13.20;99.90;;;;;;5091954;28;20146;-52
2022/10/22 08:08:29;;;;;;;13.13;7.25;;;13.20;99.90;;;;;;5111780;28;20067;-55
2022/10/22 08:10:58;;;;;;;9.55;6.07;;;13.30;99.90;;;;;;5114000;28;20118;-53
2022/10/22 08:13:26;;;;;;;12.52;5.75;;;13.30;99.90;;;;;;5101874;27;20060;-55
2022/10/22 08:15:53;;;;;;;15.88;5.82;;;13.30;99.90;;;;;;5102781;28;20060;-52
2022/10/22 08:18:23;;;;;;;12.77;5.30;;;13.30;99.90;;;;;;5092567;28;20556;-49
2022/10/22 08:20:50;;;;;;;;;;;13.30;99.90;;;;;;5095820;28;20133;-51
2022/10/22 08:23:17;;;;;;;25.58;11.93;;;13.30;99.90;;;;;;5118052;27;19920;-52
2022/10/22 08:25:44;;;;;;;7.85;3.45;;;13.30;99.90;;;;;;5133484;27;20071;-55
2022/10/22 08:28:11;;;;;;;4.22;2.35;;;13.30;99.90;;;;;;5117325;27;20044;-54
2022/10/22 08:30:39;;;;;;;4.57;2.83;;;13.30;99.90;;;;;;5097524;28;20043;-54
2022/10/22 08:33:05;;;;;;;4.55;2.40;;;13.30;99.90;;;;;;5110721;28;20031;-54
2022/10/22 08:35:32;;;;;;;3.65;2.38;;;13.40;99.90;;;;;;5109215;28;20035;-52
2022/10/22 08:37:59;;;;;;;6.30;1.75;;;13.40;99.90;;;;;;5112673;27;20630;-54
2022/10/22 08:40:36;;;;;;;3.97;2.13;;;13.40;99.90;;;;;;5112925;28;20043;-53
2022/10/22 08:43:46;;;;;;;4.75;2.10;;;13.40;99.90;;;;;;5104968;28;20036;-54
2022/10/22 08:46:20;;;;;;;;;;;13.50;99.90;;;;;;5110600;27;20097;-51
2022/10/22 08:49:01;;;;;;;3.47;1.67;;;13.50;99.90;;;;;;5122025;27;20022;-55
2022/10/22 08:51:39;;;;;;;4.15;1.83;;;13.50;99.90;;;;;;5128893;27;20070;-54
2022/10/22 08:54:25;;;;;;;4.35;2.10;;;13.50;99.90;;;;;;5092077;28;20040;-51
2022/10/22 08:57:22;;;;;;;4.85;2.38;;;13.60;99.90;;;;;;5100144;28;20068;-54
2022/10/22 08:59:55;;;;;;;4.38;2.17;;;13.50;99.90;;;;;;5091636;28;20046;-55
2022/10/22 09:02:49;;;;;;;4.10;2.67;;;13.50;99.90;;;;;;5091126;28;20097;-51
2022/10/22 09:05:44;;;;;;;3.55;2.20;;;13.60;99.90;;;;;;5083550;27;20059;-55
2022/10/22 09:08:12;;;;;;;3.92;2.35;;;13.60;99.90;;;;;;5127550;27;20039;-54
2022/10/22 09:10:46;;;;;;;7.18;2.47;;;13.60;99.90;;;;;;5129526;27;20039;-52
2022/10/22 09:13:16;;;;;;;7.55;3.08;;;13.70;99.90;;;;;;5092102;28;20081;-52
2022/10/22 09:15:57;;;;;;;7.07;3.35;;;13.70;99.90;;;;;;5095936;28;20081;-54
2022/10/22 09:18:42;;;;;;;5.00;3.47;;;13.70;99.90;;;;;;5104316;28;20063;-52
2022/10/22 09:21:23;;;;;;;5.13;3.60;;;13.70;99.90;;;;;;5106454;27;20097;-54
2022/10/22 09:23:54;;;;;;;7.80;4.00;;;13.70;99.90;;;;;;5111188;27;20039;-52
2022/10/22 09:26:21;;;;;;;7.05;3.75;;;13.70;99.90;;;;;;5108147;27;20126;-55
2022/10/22 09:28:49;;;;;;;9.23;5.45;;;13.80;99.90;;;;;;5125850;27;20068;-51
2022/10/22 09:31:16;;;;;;;5.57;4.00;;;13.80;99.90;;;;;;5101159;28;20444;-52
2022/10/22 09:33:45;;;;;;;11.10;4.72;;;13.80;99.90;;;;;;5110990;28;20074;-52
2022/10/22 09:36:20;;;;;;;10.80;4.15;;;13.90;99.90;;;;;;5090610;28;20069;-52
2022/10/22 09:38:52;;;;;;;6.47;4.00;;;13.90;99.90;;;;;;5107776;28;20070;-52
2022/10/22 09:41:23;;;;;;;6.45;4.30;;;13.90;99.90;;;;;;5103713;28;20050;-51
2022/10/22 09:43:50;;;;;;;7.13;4.15;;;13.90;99.90;;;;;;5088666;28;20489;-53
2022/10/22 09:46:26;;;;;;;6.30;3.75;;;13.90;99.90;;;;;;5100312;28;20051;-51
2022/10/22 09:49:02;;;;;;;7.40;4.68;;;13.90;99.90;;;;;;5110947;28;20039;-54
2022/10/22 09:51:58;;;;;;;8.32;4.45;;;13.90;99.90;;;;;;5102073;28;20456;-52
2022/10/22 09:54:37;;;;;;;7.68;5.32;;;14.00;99.90;;;;;;5103817;28;20047;-52
2022/10/22 09:57:15;;;;;;;6.45;5.07;;;14.00;99.90;;;;;;5107973;28;20035;-52
2022/10/22 09:59:44;;;;;;;7.93;5.38;;;14.00;99.90;;;;;;5102533;28;20064;-53
2022/10/22 10:02:25;;;;;;;8.02;4.20;;;14.00;99.90;;;;;;5105291;28;20059;-53
2022/10/22 10:05:05;;;;;;;7.63;4.35;;;14.00;99.90;;;;;;5097347;28;20047;-51
2022/10/22 10:07:34;;;;;;;9.07;4.75;;;14.10;99.90;;;;;;5104926;28;20114;-53
2022/10/22 10:10:02;;;;;;;8.45;5.22;;;14.10;99.90;;;;;;5096843;28;20070;-52
2022/10/22 10:12:53;;;;;;;12.60;6.28;;;14.10;99.90;;;;;;5107844;28;20555;-52
2022/10/22 10:15:30;;;;;;;17.58;6.15;;;14.20;99.90;;;;;;5100320;28;20074;-53
2022/10/22 10:18:15;;;;;;;10.35;6.00;;;14.20;99.90;;;;;;5097786;28;20111;-52
2022/10/22 10:21:08;;;;;;;13.60;6.78;;;14.20;99.90;;;;;;5101409;28;20036;-51
2022/10/22 10:24:06;;;;;;;10.93;5.63;;;14.10;99.90;;;;;;5106590;28;20039;-54
2022/10/22 10:26:47;;;;;;;8.23;3.93;;;14.10;99.90;;;;;;5107113;28;20035;-53
2022/10/22 10:29:29;;;;;;;9.80;4.07;;;14.10;99.90;;;;;;5105512;28;20092;-52
2022/10/22 10:32:14;;;;;;;11.45;6.18;;;14.30;99.90;;;;;;5110638;28;20096;-51
2022/10/22 10:35:03;;;;;;;8.52;4.60;;;14.30;99.90;;;;;;5098781;28;20072;-54
2022/10/22 10:37:59;;;;;;;7.72;4.00;;;14.30;99.90;;;;;;5097892;28;20532;-52
2022/10/22 10:40:50;;;;;;;17.45;7.35;;;14.40;99.90;;;;;;5109648;28;20043;-53
2022/10/22 10:43:31;;;;;;;13.35;6.10;;;14.40;99.90;;;;;;5093026;28;20524;-54
2022/10/22 10:46:19;;;;;;;9.48;5.43;;;14.30;99.90;;;;;;5106234;28;20051;-54
2022/10/22 10:48:52;;;;;;;8.68;4.10;;;14.30;99.90;;;;;;5106175;28;20040;-50
2022/10/22 10:51:44;;;;;;;7.72;4.35;;;14.30;99.90;;;;;;5101458;28;20067;-51
2022/10/22 10:54:26;;;;;;;12.35;5.55;;;14.40;99.90;;;;;;5109261;28;20071;-52
2022/10/22 10:57:23;;;;;;;7.82;4.20;;;14.50;99.90;;;;;;5104069;28;20064;-52
2022/10/22 11:00:21;;;;;;;10.13;5.25;;;14.60;99.90;;;;;;5088494;28;20094;-52
2022/10/22 11:03:16;;;;;;;8.52;4.57;;;14.70;99.90;;;;;;5090410;28;20040;-56
2022/10/22 11:06:08;;;;;;;10.68;4.78;;;14.70;99.90;;;;;;5103361;28;20101;-53
2022/10/22 11:08:44;;;;;;;10.27;5.22;;;14.70;99.90;;;;;;5096971;28;20052;-52
2022/10/22 11:11:15;;;;;;;9.52;4.20;;;14.60;99.90;;;;;;5087195;28;20031;-51
2022/10/22 11:13:56;;;;;;;6.63;4.00;;;14.60;99.90;;;;;;5110113;28;20036;-51
2022/10/22 11:16:45;;;;;;;13.88;6.50;;;14.50;99.90;;;;;;5102509;28;20105;-51
2022/10/22 11:19:35;;;;;;;6.38;5.03;;;14.50;99.90;;;;;;5100793;28;20081;-51
2022/10/22 11:22:40;;;;;;;7.53;4.65;;;14.50;99.90;;;;;;5098732;28;20035;-51
2022/10/22 11:25:46;;;;;;;10.05;5.57;;;14.50;99.90;;;;;;5100432;28;20043;-52
2022/10/22 11:28:24;;;;;;;6.93;4.20;;;14.50;99.90;;;;;;5107331;28;20067;-55
2022/10/22 11:31:01;;;;;;;7.25;4.25;;;14.60;99.90;;;;;;5103282;28;20381;-53
2022/10/22 11:33:53;;;;;;;8.25;4.50;;;14.60;99.90;;;;;;5109643;28;20050;-52
2022/10/22 11:36:36;;;;;;;5.90;3.83;;;14.70;99.90;;;;;;5104617;28;20122;-52
2022/10/22 11:39:03;;;;;;;7.45;4.10;;;14.90;99.90;;;;;;5113744;28;20135;-51
2022/10/22 11:41:33;;;;;;;5.43;3.50;;;15.00;99.90;;;;;;5107096;28;20039;-53
2022/10/22 11:44:20;;;;;;;6.38;3.47;;;15.10;99.90;;;;;;5102110;28;20035;-51
2022/10/22 11:47:14;;;;;;;6.45;3.40;;;15.20;99.90;;;;;;5109398;28;20070;-52
2022/10/22 11:49:56;;;;;;;5.75;3.33;;;15.30;99.90;;;;;;5100028;28;20036;-52
2022/10/22 11:52:25;;;;;;;6.60;3.20;;;15.30;99.90;;;;;;5105100;28;20071;-52
2022/10/22 11:54:59;;;;;;;10.05;3.50;;;15.30;99.90;;;;;;5104749;28;20044;-51
2022/10/22 11:57:37;;;;;;;5.82;3.00;;;15.40;99.90;;;;;;5106684;28;20035;-50
2022/10/22 12:00:27;;;;;;;5.05;3.13;;;15.50;99.90;;;;;;5102714;28;20427;-52
2022/10/22 12:03:18;;;;;;;3.70;2.47;;;15.60;99.90;;;;;;5111445;28;20074;-52
2022/10/22 12:05:45;;;;;;;7.63;2.90;;;15.70;99.90;;;;;;5103648;28;20039;-53
2022/10/22 12:08:17;;;;;;;;;;;15.80;99.90;;;;;;5102988;28;20093;-52
2022/10/22 12:10:57;;;;;;;4.72;2.50;;;15.90;99.90;;;;;;5112613;28;19920;-52
2022/10/22 12:13:30;;;;;;;3.95;2.42;;;16.00;99.90;;;;;;5109719;28;20071;-54
2022/10/22 12:16:01;;;;;;;3.53;1.98;;;16.10;99.90;;;;;;5111477;28;20043;-51
2022/10/22 12:18:39;;;;;;;4.50;2.47;;;16.10;99.90;;;;;;5099616;28;20523;-51
2022/10/22 12:21:08;;;;;;;;;;;16.00;99.90;;;;;;5114033;28;20707;-53
2022/10/22 12:23:36;;;;;;;4.25;2.22;;;16.10;99.90;;;;;;5096940;28;20307;-53
2022/10/22 12:26:04;;;;;;;5.00;2.00;;;16.20;99.90;;;;;;5106635;28;20361;-54
2022/10/22 12:28:40;;;;;;;5.15;2.38;;;16.20;99.90;;;;;;5108753;28;20068;-54
2022/10/22 12:31:15;;;;;;;3.97;1.70;;;16.40;99.90;;;;;;5111416;28;20048;-50
2022/10/22 12:33:42;;;;;;;2.58;1.80;;;16.30;99.90;;;;;;5111116;28;20039;-51
2022/10/22 12:36:17;;;;;;;4.03;2.03;;;16.20;99.90;;;;;;5109272;28;20171;-51
2022/10/22 12:38:46;;;;;;;4.30;2.00;;;16.10;99.90;;;;;;5102470;28;20036;-52
2022/10/22 12:41:13;;;;;;;7.65;3.20;;;16.10;99.90;;;;;;5111652;28;20043;-51
2022/10/22 12:43:40;;;;;;;4.60;2.70;;;16.00;99.90;;;;;;5108691;28;20074;-52
2022/10/22 12:46:12;;;;;;;3.72;2.20;;;15.90;99.90;;;;;;5101926;28;20082;-51
2022/10/22 12:48:42;;;;;;;3.78;2.38;;;16.00;99.90;;;;;;5107003;28;20051;-53
2022/10/22 12:51:16;;;;;;;3.65;2.33;;;16.00;99.90;;;;;;5099995;28;20040;-51
2022/10/22 12:53:52;;;;;;;5.07;2.30;;;16.10;99.90;;;;;;5076927;28;20071;-50
2022/10/22 12:56:27;;;;;;;3.17;2.13;;;16.20;99.90;;;;;;5091279;28;20062;-54
2022/10/22 12:58:59;;;;;;;4.97;2.72;;;16.20;99.90;;;;;;5110353;28;20031;-51
2022/10/22 13:01:28;;;;;;;5.55;2.80;;;16.20;99.90;;;;;;5106612;28;20036;-52
2022/10/22 13:04:27;;;;;;;5.10;2.40;;;16.20;99.90;;;;;;5107142;28;20035;-50
2022/10/22 13:07:17;;;;;;;3.15;1.52;;;16.20;99.90;;;;;;5098389;28;20109;-50
2022/10/22 13:09:57;;;;;;;3.88;1.73;;;16.20;99.90;;;;;;5097866;28;20083;-54
2022/10/22 13:12:26;;;;;;;2.90;1.83;;;16.30;99.90;;;;;;5097585;28;20051;-53
2022/10/22 13:14:53;;;;;;;3.22;1.95;;;16.40;99.90;;;;;;5106132;28;20040;-53
2022/10/22 13:17:39;;;;;;;6.15;2.25;;;16.50;99.90;;;;;;5106441;28;20480;-54
2022/10/22 13:20:20;;;;;;;3.97;2.00;;;16.60;99.90;;;;;;5099991;28;20078;-52